JDI69 KLGA-KILM
Flight info
| Callsign | JDI69 |
|---|---|
| Flight time | 1h 15m |
| Altitude | 43000 |
| Route | WHITE Q409 CRPLR PAACK |
| Aircraft | C700/M-SBDGHM1RWXY/LB2 |
Departure
| Time | 2026-05-07 00:32 |
|---|---|
| Airport | LaGuardia Airport (KLGA) |
Arrival
| Time | 2026-05-07 01:48 |
|---|---|
| Airport | Wilmington International Airport (KILM) |
| Time | Latitude | Longitude | Altitude | Speed | Heading |
|---|---|---|---|---|---|
| 2026-05-06 23:59 | 40.77926 | -73.88194 | 10 ft | 0 kts | 123° |
| 2026-05-07 00:28 | 40.77924 | -73.88190 | 10 ft | 3 kts | 126° |
| 2026-05-07 00:28 | 40.77914 | -73.88140 | 10 ft | 8 kts | 85° |
| 2026-05-07 00:29 | 40.77961 | -73.88076 | 8 ft | 13 kts | 33° |
| 2026-05-07 00:29 | 40.78011 | -73.88024 | 8 ft | 9 kts | 75° |
| 2026-05-07 00:30 | 40.78066 | -73.87840 | 7 ft | 7 kts | 345° |
| 2026-05-07 00:30 | 40.78119 | -73.87857 | 16 ft | 9 kts | 349° |
| 2026-05-07 00:30 | 40.78133 | -73.87861 | 14 ft | 0 kts | 349° |
| 2026-05-07 00:31 | 40.78155 | -73.87866 | 10 ft | 9 kts | 349° |
| 2026-05-07 00:31 | 40.78220 | -73.87833 | 12 ft | 11 kts | 78° |
| 2026-05-07 00:32 | 40.78180 | -73.87734 | 10 ft | 15 kts | 122° |
| 2026-05-07 00:32 | 40.78089 | -73.87545 | 11 ft | 51 kts | 123° |
| 2026-05-07 00:32 | 40.77736 | -73.86804 | 51 ft | 133 kts | 124° |
| 2026-05-07 00:32 | 40.77240 | -73.85652 | 672 ft | 160 kts | 123° |
| 2026-05-07 00:33 | 40.76573 | -73.84272 | 1308 ft | 205 kts | 136° |
| 2026-05-07 00:33 | 40.75351 | -73.83260 | 2568 ft | 209 kts | 174° |
| 2026-05-07 00:33 | 40.73873 | -73.83114 | 3785 ft | 217 kts | 186° |
| 2026-05-07 00:33 | 40.72335 | -73.82963 | 4663 ft | 227 kts | 180° |
| 2026-05-07 00:34 | 40.70691 | -73.82811 | 5014 ft | 248 kts | 191° |
| 2026-05-07 00:34 | 40.69050 | -73.83201 | 5108 ft | 237 kts | 198° |
| 2026-05-07 00:34 | 40.67538 | -73.83782 | 6286 ft | 214 kts | 210° |
| 2026-05-07 00:34 | 40.66220 | -73.84687 | 8000 ft | 219 kts | 220° |
| 2026-05-07 00:35 | 40.65018 | -73.85910 | 9760 ft | 218 kts | 225° |
| 2026-05-07 00:35 | 40.63816 | -73.87108 | 11346 ft | 225 kts | 223° |
| 2026-05-07 00:35 | 40.62334 | -73.88223 | 12373 ft | 260 kts | 212° |
| 2026-05-07 00:35 | 40.60599 | -73.89261 | 13473 ft | 285 kts | 211° |
| 2026-05-07 00:36 | 40.58774 | -73.90338 | 14960 ft | 291 kts | 212° |
| 2026-05-07 00:36 | 40.56903 | -73.91469 | 16314 ft | 301 kts | 212° |
| 2026-05-07 00:36 | 40.54968 | -73.92647 | 17657 ft | 311 kts | 213° |
| 2026-05-07 00:36 | 40.52975 | -73.93851 | 18870 ft | 319 kts | 213° |
| 2026-05-07 00:37 | 40.50947 | -73.95067 | 20185 ft | 321 kts | 214° |
| 2026-05-07 00:37 | 40.48914 | -73.96290 | 21387 ft | 324 kts | 216° |
| 2026-05-07 00:37 | 40.46809 | -73.97575 | 21852 ft | 348 kts | 216° |
| 2026-05-07 00:37 | 40.44544 | -73.98966 | 21863 ft | 381 kts | 214° |
| 2026-05-07 00:38 | 40.42056 | -74.00450 | 21893 ft | 403 kts | 213° |
| 2026-05-07 00:38 | 40.39519 | -74.01925 | 22877 ft | 387 kts | 214° |
| 2026-05-07 00:38 | 40.37158 | -74.03312 | 24853 ft | 356 kts | 217° |
| 2026-05-07 00:38 | 40.34979 | -74.04631 | 26591 ft | 341 kts | 218° |
| 2026-05-07 00:39 | 40.32808 | -74.05984 | 27263 ft | 351 kts | 218° |
| 2026-05-07 00:39 | 40.30564 | -74.07346 | 27863 ft | 364 kts | 217° |
| 2026-05-07 00:39 | 40.28178 | -74.08776 | 27869 ft | 390 kts | 216° |
| 2026-05-07 00:39 | 40.25622 | -74.10295 | 27878 ft | 415 kts | 216° |
| 2026-05-07 00:40 | 40.22934 | -74.11893 | 27868 ft | 432 kts | 215° |
| 2026-05-07 00:40 | 40.20173 | -74.13530 | 27877 ft | 436 kts | 215° |
| 2026-05-07 00:40 | 40.17423 | -74.15158 | 27874 ft | 433 kts | 215° |
| 2026-05-07 00:40 | 40.14709 | -74.16777 | 27871 ft | 429 kts | 215° |
| 2026-05-07 00:41 | 40.11989 | -74.18406 | 27870 ft | 428 kts | 215° |
| 2026-05-07 00:41 | 40.09308 | -74.20006 | 27871 ft | 430 kts | 215° |
| 2026-05-07 00:41 | 40.06607 | -74.21602 | 28499 ft | 418 kts | 215° |
| 2026-05-07 00:41 | 40.03999 | -74.23121 | 30501 ft | 388 kts | 216° |
| 2026-05-07 00:42 | 40.01662 | -74.24557 | 31924 ft | 372 kts | 220° |
| 2026-05-07 00:42 | 39.99451 | -74.26300 | 32386 ft | 372 kts | 226° |
| 2026-05-07 00:42 | 39.97363 | -74.28273 | 33081 ft | 370 kts | 229° |
| 2026-05-07 00:42 | 39.95309 | -74.30268 | 33971 ft | 367 kts | 229° |
| 2026-05-07 00:43 | 39.93248 | -74.32218 | 34744 ft | 364 kts | 229° |
| 2026-05-07 00:43 | 39.91208 | -74.34145 | 35447 ft | 362 kts | 230° |
| 2026-05-07 00:43 | 39.89185 | -74.36074 | 36168 ft | 359 kts | 230° |
| 2026-05-07 00:43 | 39.87186 | -74.37977 | 36926 ft | 353 kts | 231° |
| 2026-05-07 00:44 | 39.85230 | -74.39839 | 37496 ft | 352 kts | 231° |
| 2026-05-07 00:44 | 39.83255 | -74.41724 | 37786 ft | 354 kts | 232° |
| 2026-05-07 00:44 | 39.81352 | -74.43769 | 38208 ft | 346 kts | 236° |
| 2026-05-07 00:44 | 39.79655 | -74.45924 | 38664 ft | 338 kts | 239° |
| 2026-05-07 00:45 | 39.78011 | -74.48124 | 38961 ft | 340 kts | 239° |
| 2026-05-07 00:45 | 39.76347 | -74.50321 | 39239 ft | 341 kts | 238° |
| 2026-05-07 00:45 | 39.74684 | -74.52518 | 39511 ft | 342 kts | 238° |
| 2026-05-07 00:45 | 39.73018 | -74.54729 | 39776 ft | 343 kts | 238° |
| 2026-05-07 00:46 | 39.71352 | -74.56941 | 40033 ft | 344 kts | 238° |
| 2026-05-07 00:46 | 39.69695 | -74.59132 | 40279 ft | 344 kts | 237° |
| 2026-05-07 00:46 | 39.68013 | -74.61355 | 40527 ft | 345 kts | 237° |
| 2026-05-07 00:46 | 39.66330 | -74.63578 | 40754 ft | 346 kts | 237° |
| 2026-05-07 00:47 | 39.64642 | -74.65808 | 41000 ft | 347 kts | 237° |
| 2026-05-07 00:47 | 39.62951 | -74.68040 | 41225 ft | 347 kts | 236° |
| 2026-05-07 00:47 | 39.61254 | -74.70277 | 41446 ft | 348 kts | 236° |
| 2026-05-07 00:47 | 39.59554 | -74.72516 | 41665 ft | 348 kts | 236° |
| 2026-05-07 00:48 | 39.57852 | -74.74757 | 41876 ft | 349 kts | 236° |
| 2026-05-07 00:48 | 39.56150 | -74.76997 | 42079 ft | 350 kts | 236° |
| 2026-05-07 00:48 | 39.54440 | -74.79243 | 42280 ft | 350 kts | 236° |
| 2026-05-07 00:48 | 39.52751 | -74.81463 | 42474 ft | 351 kts | 235° |
| 2026-05-07 00:49 | 39.51035 | -74.83715 | 42662 ft | 351 kts | 235° |
| 2026-05-07 00:49 | 39.49316 | -74.85971 | 42852 ft | 352 kts | 235° |
| 2026-05-07 00:49 | 39.45841 | -74.90528 | 42877 ft | 359 kts | 235° |
| 2026-05-07 00:50 | 39.42283 | -74.95181 | 42884 ft | 368 kts | 234° |
| 2026-05-07 00:50 | 39.38649 | -74.99927 | 42882 ft | 376 kts | 234° |
| 2026-05-07 00:51 | 39.34930 | -75.04776 | 42880 ft | 383 kts | 234° |
| 2026-05-07 00:51 | 39.31170 | -75.09674 | 42877 ft | 390 kts | 234° |
| 2026-05-07 00:52 | 39.27145 | -75.14508 | 42870 ft | 399 kts | 231° |
| 2026-05-07 00:52 | 39.23022 | -75.19362 | 42881 ft | 404 kts | 231° |
| 2026-05-07 00:53 | 39.18830 | -75.24249 | 42868 ft | 406 kts | 231° |
| 2026-05-07 00:53 | 39.14657 | -75.29120 | 42861 ft | 403 kts | 231° |
| 2026-05-07 00:54 | 39.10514 | -75.33945 | 42854 ft | 400 kts | 231° |
| 2026-05-07 00:54 | 39.06245 | -75.38589 | 42846 ft | 409 kts | 226° |
| 2026-05-07 00:55 | 39.01237 | -75.42300 | 42852 ft | 429 kts | 216° |
| 2026-05-07 00:55 | 38.98379 | -75.43735 | 42860 ft | 441 kts | 210° |
| 2026-05-07 00:55 | 38.95434 | -75.44775 | 42868 ft | 450 kts | 204° |
| 2026-05-07 00:56 | 38.89145 | -75.45848 | 42890 ft | 458 kts | 198° |
| 2026-05-07 00:56 | 38.82837 | -75.46736 | 42882 ft | 456 kts | 199° |
| 2026-05-07 00:57 | 38.76506 | -75.47605 | 42887 ft | 459 kts | 198° |
| 2026-05-07 00:57 | 38.70130 | -75.48482 | 42878 ft | 462 kts | 198° |
| 2026-05-07 00:58 | 38.63743 | -75.49345 | 42884 ft | 462 kts | 198° |
| 2026-05-07 00:58 | 38.57350 | -75.50215 | 42884 ft | 462 kts | 198° |
| 2026-05-07 00:59 | 38.47802 | -75.51506 | 42885 ft | 462 kts | 198° |
| 2026-05-07 01:00 | 38.41412 | -75.52370 | 42881 ft | 462 kts | 198° |
| 2026-05-07 01:00 | 38.35257 | -75.54039 | 42886 ft | 444 kts | 210° |
| 2026-05-07 01:01 | 38.30608 | -75.56553 | 42895 ft | 431 kts | 219° |
| 2026-05-07 01:01 | 38.24864 | -75.61282 | 42912 ft | 421 kts | 225° |
| 2026-05-07 01:02 | 38.20811 | -75.64789 | 42901 ft | 420 kts | 225° |
| 2026-05-07 01:02 | 38.15986 | -75.68993 | 42899 ft | 420 kts | 225° |
| 2026-05-07 01:03 | 38.11157 | -75.73181 | 42902 ft | 421 kts | 225° |
| 2026-05-07 01:03 | 38.06353 | -75.77344 | 42905 ft | 421 kts | 225° |
| 2026-05-07 01:04 | 38.01517 | -75.81527 | 42902 ft | 419 kts | 225° |
| 2026-05-07 01:04 | 37.96700 | -75.85689 | 42909 ft | 419 kts | 225° |
| 2026-05-07 01:05 | 37.91877 | -75.89847 | 42908 ft | 419 kts | 225° |
| 2026-05-07 01:05 | 37.87056 | -75.93998 | 42898 ft | 419 kts | 225° |
| 2026-05-07 01:06 | 37.82234 | -75.98143 | 42899 ft | 419 kts | 225° |
| 2026-05-07 01:06 | 37.77439 | -76.02260 | 42902 ft | 421 kts | 226° |
| 2026-05-07 01:07 | 37.72559 | -76.06443 | 42907 ft | 426 kts | 225° |
| 2026-05-07 01:07 | 37.67608 | -76.10674 | 42915 ft | 427 kts | 225° |
| 2026-05-07 01:08 | 37.62739 | -76.14831 | 42933 ft | 424 kts | 225° |
| 2026-05-07 01:08 | 37.57623 | -76.18623 | 42911 ft | 429 kts | 220° |
| 2026-05-07 01:09 | 37.52385 | -76.22120 | 42900 ft | 425 kts | 220° |
| 2026-05-07 01:09 | 37.47134 | -76.25617 | 42906 ft | 429 kts | 220° |
| 2026-05-07 01:10 | 37.41838 | -76.29129 | 42910 ft | 432 kts | 220° |
| 2026-05-07 01:10 | 37.36508 | -76.32663 | 42909 ft | 434 kts | 220° |
| 2026-05-07 01:11 | 37.31183 | -76.36189 | 42900 ft | 436 kts | 220° |
| 2026-05-07 01:11 | 37.25818 | -76.39731 | 42927 ft | 435 kts | 220° |
| 2026-05-07 01:12 | 37.20475 | -76.43256 | 42935 ft | 433 kts | 220° |
| 2026-05-07 01:12 | 37.15156 | -76.46760 | 42936 ft | 431 kts | 220° |
| 2026-05-07 01:13 | 37.09826 | -76.50271 | 42928 ft | 436 kts | 220° |
| 2026-05-07 01:13 | 37.04439 | -76.53800 | 42941 ft | 436 kts | 220° |
| 2026-05-07 01:14 | 36.99088 | -76.57309 | 42928 ft | 432 kts | 220° |
| 2026-05-07 01:14 | 36.93798 | -76.60786 | 42912 ft | 425 kts | 222° |
| 2026-05-07 01:14 | 36.91426 | -76.62865 | 42940 ft | 409 kts | 232° |
| 2026-05-07 01:15 | 36.89511 | -76.65420 | 42945 ft | 397 kts | 242° |
| 2026-05-07 01:15 | 36.86554 | -76.71159 | 42857 ft | 393 kts | 249° |
| 2026-05-07 01:15 | 36.85214 | -76.74142 | 42297 ft | 392 kts | 250° |
| 2026-05-07 01:16 | 36.83937 | -76.77058 | 41772 ft | 384 kts | 250° |
| 2026-05-07 01:16 | 36.82676 | -76.79942 | 41244 ft | 373 kts | 250° |
| 2026-05-07 01:16 | 36.81446 | -76.82732 | 40730 ft | 362 kts | 250° |
| 2026-05-07 01:16 | 36.80237 | -76.85440 | 40228 ft | 352 kts | 250° |
| 2026-05-07 01:17 | 36.79049 | -76.88071 | 39763 ft | 345 kts | 250° |
| 2026-05-07 01:17 | 36.77874 | -76.90651 | 39289 ft | 339 kts | 250° |
| 2026-05-07 01:17 | 36.76709 | -76.93194 | 38827 ft | 337 kts | 250° |
| 2026-05-07 01:17 | 36.75542 | -76.95736 | 38290 ft | 340 kts | 250° |
| 2026-05-07 01:18 | 36.74361 | -76.98328 | 37750 ft | 349 kts | 250° |
| 2026-05-07 01:18 | 36.73160 | -77.01015 | 37233 ft | 359 kts | 250° |
| 2026-05-07 01:18 | 36.71949 | -77.03783 | 36725 ft | 366 kts | 250° |
| 2026-05-07 01:18 | 36.70760 | -77.06549 | 36220 ft | 368 kts | 250° |
| 2026-05-07 01:19 | 36.69562 | -77.09380 | 35612 ft | 370 kts | 250° |
| 2026-05-07 01:19 | 36.68379 | -77.12227 | 35006 ft | 370 kts | 250° |
| 2026-05-07 01:19 | 36.67212 | -77.15084 | 34418 ft | 370 kts | 250° |
| 2026-05-07 01:19 | 36.66059 | -77.17961 | 33824 ft | 371 kts | 250° |
| 2026-05-07 01:20 | 36.64924 | -77.20858 | 33169 ft | 376 kts | 250° |
| 2026-05-07 01:20 | 36.63747 | -77.23832 | 32956 ft | 391 kts | 246° |
| 2026-05-07 01:20 | 36.62063 | -77.26628 | 32949 ft | 419 kts | 235° |
| 2026-05-07 01:20 | 36.59772 | -77.29041 | 32933 ft | 443 kts | 223° |
| 2026-05-07 01:21 | 36.56984 | -77.30799 | 32302 ft | 458 kts | 209° |
| 2026-05-07 01:21 | 36.53844 | -77.31662 | 31500 ft | 467 kts | 195° |
| 2026-05-07 01:21 | 36.50577 | -77.31608 | 30782 ft | 470 kts | 184° |
| 2026-05-07 01:21 | 36.47345 | -77.31266 | 30086 ft | 463 kts | 182° |
| 2026-05-07 01:22 | 36.44159 | -77.30899 | 29278 ft | 458 kts | 182° |
| 2026-05-07 01:22 | 36.40984 | -77.30591 | 28962 ft | 459 kts | 184° |
| 2026-05-07 01:22 | 36.37727 | -77.30310 | 28956 ft | 480 kts | 183° |
| 2026-05-07 01:22 | 36.34335 | -77.29980 | 28962 ft | 494 kts | 182° |
| 2026-05-07 01:23 | 36.30911 | -77.29605 | 28927 ft | 494 kts | 182° |
| 2026-05-07 01:23 | 36.24117 | -77.28940 | 28945 ft | 493 kts | 183° |
| 2026-05-07 01:24 | 36.17275 | -77.28268 | 28942 ft | 494 kts | 182° |
| 2026-05-07 01:24 | 36.10421 | -77.27589 | 28941 ft | 494 kts | 183° |
| 2026-05-07 01:25 | 36.03580 | -77.26922 | 28955 ft | 493 kts | 182° |
| 2026-05-07 01:25 | 35.96705 | -77.26294 | 28958 ft | 494 kts | 185° |
| 2026-05-07 01:26 | 35.90053 | -77.27103 | 28962 ft | 476 kts | 199° |
| 2026-05-07 01:26 | 35.83785 | -77.29442 | 28958 ft | 470 kts | 205° |
| 2026-05-07 01:27 | 35.77524 | -77.31909 | 28956 ft | 476 kts | 204° |
| 2026-05-07 01:27 | 35.74365 | -77.33158 | 28806 ft | 476 kts | 204° |
| 2026-05-07 01:27 | 35.71245 | -77.34391 | 28194 ft | 463 kts | 204° |
| 2026-05-07 01:27 | 35.68235 | -77.35572 | 27591 ft | 445 kts | 204° |
| 2026-05-07 01:28 | 35.65333 | -77.36717 | 27013 ft | 430 kts | 204° |
| 2026-05-07 01:28 | 35.62518 | -77.37834 | 26459 ft | 421 kts | 205° |
| 2026-05-07 01:28 | 35.59741 | -77.38934 | 25901 ft | 420 kts | 205° |
| 2026-05-07 01:28 | 35.56977 | -77.40026 | 25347 ft | 425 kts | 204° |
| 2026-05-07 01:29 | 35.54148 | -77.41138 | 24796 ft | 430 kts | 204° |
| 2026-05-07 01:29 | 35.51299 | -77.42252 | 24228 ft | 428 kts | 204° |
| 2026-05-07 01:29 | 35.48480 | -77.43356 | 23667 ft | 423 kts | 204° |
| 2026-05-07 01:29 | 35.45698 | -77.44451 | 23084 ft | 417 kts | 204° |
| 2026-05-07 01:30 | 35.42960 | -77.45526 | 22538 ft | 411 kts | 204° |
| 2026-05-07 01:30 | 35.40254 | -77.46587 | 22000 ft | 407 kts | 204° |
| 2026-05-07 01:30 | 35.37558 | -77.47645 | 21467 ft | 406 kts | 204° |
| 2026-05-07 01:30 | 35.34874 | -77.48696 | 20924 ft | 405 kts | 203° |
| 2026-05-07 01:31 | 35.32196 | -77.49743 | 20404 ft | 403 kts | 203° |
| 2026-05-07 01:31 | 35.29530 | -77.50784 | 19871 ft | 400 kts | 203° |
| 2026-05-07 01:31 | 35.26891 | -77.51814 | 19343 ft | 397 kts | 203° |
| 2026-05-07 01:31 | 35.24269 | -77.52839 | 18821 ft | 393 kts | 202° |
| 2026-05-07 01:32 | 35.21674 | -77.53852 | 18304 ft | 391 kts | 202° |
| 2026-05-07 01:32 | 35.19096 | -77.54856 | 17754 ft | 387 kts | 202° |
| 2026-05-07 01:32 | 35.16546 | -77.55849 | 17236 ft | 383 kts | 202° |
| 2026-05-07 01:32 | 35.14019 | -77.56833 | 16728 ft | 379 kts | 202° |
| 2026-05-07 01:33 | 35.11516 | -77.57807 | 16233 ft | 376 kts | 202° |
| 2026-05-07 01:33 | 35.09070 | -77.58759 | 15750 ft | 373 kts | 202° |
| 2026-05-07 01:33 | 35.06604 | -77.59720 | 15267 ft | 372 kts | 204° |
| 2026-05-07 01:33 | 35.04145 | -77.60675 | 14771 ft | 370 kts | 204° |
| 2026-05-07 01:34 | 35.01709 | -77.61616 | 14264 ft | 362 kts | 203° |
| 2026-05-07 01:34 | 34.99371 | -77.62514 | 13947 ft | 339 kts | 204° |
| 2026-05-07 01:34 | 34.97218 | -77.63343 | 13884 ft | 311 kts | 204° |
| 2026-05-07 01:34 | 34.95220 | -77.64120 | 13506 ft | 297 kts | 205° |
| 2026-05-07 01:35 | 34.93249 | -77.64898 | 12837 ft | 297 kts | 205° |
| 2026-05-07 01:35 | 34.91292 | -77.65658 | 12249 ft | 293 kts | 204° |
| 2026-05-07 01:35 | 34.89354 | -77.66403 | 11655 ft | 291 kts | 204° |
| 2026-05-07 01:35 | 34.87464 | -77.67133 | 11099 ft | 287 kts | 204° |
| 2026-05-07 01:36 | 34.85562 | -77.67869 | 10483 ft | 287 kts | 204° |
| 2026-05-07 01:36 | 34.83669 | -77.68602 | 9952 ft | 284 kts | 203° |
| 2026-05-07 01:36 | 34.81796 | -77.69324 | 9361 ft | 281 kts | 203° |
| 2026-05-07 01:36 | 34.79943 | -77.70039 | 8792 ft | 278 kts | 203° |
| 2026-05-07 01:37 | 34.78075 | -77.70637 | 8198 ft | 280 kts | 195° |
| 2026-05-07 01:37 | 34.76139 | -77.70917 | 7658 ft | 280 kts | 191° |
| 2026-05-07 01:37 | 34.74204 | -77.71117 | 7132 ft | 278 kts | 190° |
| 2026-05-07 01:37 | 34.72287 | -77.71302 | 6604 ft | 276 kts | 190° |
| 2026-05-07 01:38 | 34.70378 | -77.71488 | 6074 ft | 274 kts | 190° |
| 2026-05-07 01:38 | 34.68491 | -77.71669 | 5562 ft | 271 kts | 190° |
| 2026-05-07 01:38 | 34.66653 | -77.71846 | 5120 ft | 266 kts | 190° |
| 2026-05-07 01:38 | 34.64820 | -77.72021 | 4618 ft | 264 kts | 190° |
| 2026-05-07 01:39 | 34.62998 | -77.72202 | 4152 ft | 260 kts | 190° |
| 2026-05-07 01:39 | 34.61209 | -77.72393 | 3646 ft | 257 kts | 190° |
| 2026-05-07 01:39 | 34.59441 | -77.72611 | 3180 ft | 253 kts | 190° |
| 2026-05-07 01:39 | 34.57718 | -77.72841 | 2992 ft | 241 kts | 190° |
| 2026-05-07 01:40 | 34.56070 | -77.73054 | 2994 ft | 239 kts | 190° |
| 2026-05-07 01:40 | 34.54416 | -77.73272 | 2986 ft | 236 kts | 190° |
| 2026-05-07 01:40 | 34.52839 | -77.73467 | 2989 ft | 219 kts | 190° |
| 2026-05-07 01:40 | 34.51391 | -77.73649 | 2984 ft | 200 kts | 191° |
| 2026-05-07 01:41 | 34.50049 | -77.73801 | 2989 ft | 190 kts | 190° |
| 2026-05-07 01:41 | 34.48736 | -77.73935 | 2989 ft | 194 kts | 190° |
| 2026-05-07 01:41 | 34.47378 | -77.74085 | 2999 ft | 198 kts | 190° |
| 2026-05-07 01:41 | 34.46000 | -77.74239 | 2997 ft | 199 kts | 190° |
| 2026-05-07 01:42 | 34.44618 | -77.74388 | 3002 ft | 196 kts | 190° |
| 2026-05-07 01:42 | 34.43276 | -77.74531 | 2597 ft | 196 kts | 191° |
| 2026-05-07 01:42 | 34.41928 | -77.74847 | 2298 ft | 188 kts | 199° |
| 2026-05-07 01:42 | 34.40661 | -77.75202 | 2004 ft | 183 kts | 198° |
| 2026-05-07 01:43 | 34.39467 | -77.75524 | 2001 ft | 172 kts | 198° |
| 2026-05-07 01:43 | 34.38314 | -77.75843 | 2010 ft | 167 kts | 198° |
| 2026-05-07 01:43 | 34.37327 | -77.76326 | 1991 ft | 145 kts | 216° |
| 2026-05-07 01:43 | 34.36621 | -77.77075 | 1989 ft | 128 kts | 226° |
| 2026-05-07 01:44 | 34.35994 | -77.77824 | 1990 ft | 127 kts | 227° |
| 2026-05-07 01:44 | 34.35382 | -77.78611 | 1989 ft | 129 kts | 229° |
| 2026-05-07 01:44 | 34.34784 | -77.79395 | 2022 ft | 122 kts | 228° |
| 2026-05-07 01:44 | 34.34210 | -77.80167 | 1929 ft | 126 kts | 229° |
| 2026-05-07 01:45 | 34.33656 | -77.80923 | 1717 ft | 117 kts | 229° |
| 2026-05-07 01:45 | 34.33132 | -77.81636 | 1585 ft | 111 kts | 227° |
| 2026-05-07 01:45 | 34.32616 | -77.82334 | 1359 ft | 121 kts | 227° |
| 2026-05-07 01:45 | 34.32071 | -77.83054 | 1294 ft | 115 kts | 228° |
| 2026-05-07 01:46 | 34.31544 | -77.83796 | 1181 ft | 115 kts | 228° |
| 2026-05-07 01:46 | 34.31006 | -77.84537 | 987 ft | 120 kts | 227° |
| 2026-05-07 01:46 | 34.30435 | -77.85307 | 866 ft | 125 kts | 224° |
| 2026-05-07 01:46 | 34.29834 | -77.86094 | 745 ft | 129 kts | 228° |
| 2026-05-07 01:47 | 34.29246 | -77.86914 | 565 ft | 127 kts | 226° |
| 2026-05-07 01:47 | 34.28663 | -77.87675 | 359 ft | 120 kts | 225° |
| 2026-05-07 01:47 | 34.28118 | -77.88411 | 197 ft | 117 kts | 226° |
| 2026-05-07 01:47 | 34.27579 | -77.89149 | 50 ft | 113 kts | 226° |
| 2026-05-07 01:48 | 34.27153 | -77.89717 | 29 ft | 69 kts | 227° |
| 2026-05-07 01:48 | 34.26898 | -77.90068 | 22 ft | 44 kts | 229° |
| 2026-05-07 01:48 | 34.26804 | -77.90219 | 24 ft | 19 kts | 257° |
| 2026-05-07 01:48 | 34.26804 | -77.90366 | 21 ft | 14 kts | 270° |
| 2026-05-07 01:49 | 34.26803 | -77.90427 | 22 ft | 0 kts | 269° |
| 2026-05-07 01:49 | 34.26803 | -77.90428 | 22 ft | 2 kts | 269° |
| 2026-05-07 01:50 | 34.26802 | -77.90476 | 24 ft | 8 kts | 268° |
| 2026-05-07 01:50 | 34.26811 | -77.90504 | 27 ft | 4 kts | 313° |
| 2026-05-07 01:50 | 34.26853 | -77.90552 | 27 ft | 12 kts | 335° |
| 2026-05-07 01:50 | 34.26947 | -77.90592 | 27 ft | 17 kts | 341° |
| 2026-05-07 01:51 | 34.27064 | -77.90647 | 28 ft | 16 kts | 338° |
| 2026-05-07 01:51 | 34.27136 | -77.90705 | 30 ft | 7 kts | 320° |
| 2026-05-07 01:51 | 34.27140 | -77.90709 | 30 ft | 0 kts | 317° |
| 2026-05-07 01:51 | 34.27137 | -77.90716 | 30 ft | 2 kts | 226° |
| 2026-05-07 01:52 | 34.27097 | -77.90768 | 31 ft | 12 kts | 234° |
| 2026-05-07 01:52 | 34.27067 | -77.90866 | 33 ft | 13 kts | 256° |
| 2026-05-07 01:52 | 34.27053 | -77.90959 | 34 ft | 8 kts | 283° |
| 2026-05-07 01:52 | 34.27062 | -77.90978 | 34 ft | 0 kts | 305° |